createdAt,value
2022-09-06T00:03:37.177Z,8.31
2022-09-06T00:08:41.165Z,8.24
2022-09-06T00:13:46.991Z,8.26
2022-09-06T00:18:51.108Z,8.27
2022-09-06T00:23:54.775Z,8.35
2022-09-06T00:28:59.685Z,8.49
2022-09-06T00:34:03.519Z,8.63
2022-09-06T00:39:07.059Z,8.62
2022-09-06T00:44:12.109Z,8.70
2022-09-06T00:49:24.331Z,8.73
2022-09-06T00:54:28.552Z,8.86
2022-09-06T00:59:36.687Z,8.92
2022-09-06T01:04:41.778Z,8.90
2022-09-06T01:10:01.204Z,8.93
2022-09-06T01:15:18.765Z,8.94
2022-09-06T01:20:42.536Z,8.91
2022-09-06T01:25:59.667Z,8.92
2022-09-06T01:31:18.553Z,8.99
2022-09-06T01:36:25.638Z,9.01
2022-09-06T01:41:29.989Z,8.86
2022-09-06T01:46:42.017Z,8.92
2022-09-06T01:52:03.846Z,8.89
2022-09-06T01:57:23.175Z,8.86
2022-09-06T02:02:38.988Z,8.67
2022-09-06T02:07:45.990Z,8.67
2022-09-06T02:12:53.793Z,8.58
2022-09-06T02:18:03.746Z,8.53
2022-09-06T02:23:09.531Z,8.53
2022-09-06T02:28:13.239Z,8.54
2022-09-06T02:33:21.386Z,8.64
2022-09-06T02:38:28.046Z,8.62
2022-09-06T02:43:31.859Z,8.59
2022-09-06T02:48:36.957Z,8.68
2022-09-06T02:53:40.428Z,8.69
2022-09-06T02:58:43.964Z,8.66
2022-09-06T03:03:48.821Z,8.73
2022-09-06T03:08:52.217Z,8.76
2022-09-06T03:13:55.664Z,8.73
2022-09-06T03:19:00.571Z,8.80
2022-09-06T03:24:04.034Z,8.90
2022-09-06T03:29:07.441Z,8.88
2022-09-06T03:34:12.244Z,8.91
2022-09-06T03:39:15.462Z,9.02
2022-09-06T03:44:20.117Z,8.98
2022-09-06T03:49:25.424Z,9.07
2022-09-06T03:54:29.245Z,9.12
2022-09-06T03:59:32.692Z,9.15
2022-09-06T04:04:37.959Z,9.27
2022-09-06T04:09:41.378Z,9.54
2022-09-06T04:14:44.795Z,9.73
2022-09-06T04:19:49.708Z,9.95
2022-09-06T04:24:52.896Z,10.10
2022-09-06T04:29:56.711Z,10.13
2022-09-06T04:35:01.527Z,10.03
2022-09-06T04:40:08.049Z,10.00
2022-09-06T04:45:12.372Z,10.01
2022-09-06T04:50:17.214Z,9.87
2022-09-06T04:55:20.342Z,9.94
2022-09-06T05:00:23.823Z,9.91
2022-09-06T05:05:28.688Z,9.82
2022-09-06T05:10:32.211Z,9.98
2022-09-06T05:15:35.630Z,9.91
2022-09-06T05:20:40.644Z,10.08
2022-09-06T05:25:44.169Z,9.98
2022-09-06T05:30:48.645Z,9.95
2022-09-06T05:35:56.529Z,10.35
2022-09-06T05:41:00.054Z,10.93
2022-09-06T05:46:03.771Z,12.42
2022-09-06T05:51:12.562Z,14.42
2022-09-06T05:56:16.620Z,13.71
2022-09-06T06:01:22.073Z,12.98
2022-09-06T06:06:28.816Z,12.35
2022-09-06T06:11:32.816Z,11.79
2022-09-06T06:16:36.473Z,11.50
2022-09-06T06:21:41.506Z,11.47
2022-09-06T06:26:44.975Z,11.46
2022-09-06T06:31:48.468Z,11.53
2022-09-06T06:36:53.396Z,12.64
2022-09-06T06:41:56.567Z,19.43
2022-09-06T06:47:02.164Z,24.38
2022-09-06T06:52:08.090Z,23.47
2022-09-06T06:57:12.753Z,20.31
2022-09-06T07:02:17.903Z,18.07
2022-09-06T07:07:30.704Z,16.76
2022-09-06T07:12:34.635Z,17.19
2022-09-06T07:17:38.948Z,16.77
2022-09-06T07:22:43.908Z,15.22
2022-09-06T07:27:48.493Z,14.29
2022-09-06T07:32:53.159Z,14.43
2022-09-06T07:38:00.772Z,17.85
2022-09-06T07:43:04.206Z,20.82
2022-09-06T07:48:08.150Z,21.52
2022-09-06T07:53:16.678Z,18.85
2022-09-06T07:58:25.621Z,17.26
2022-09-06T08:03:29.415Z,17.33
2022-09-06T08:13:59.230Z,19.04
2022-09-06T08:19:04.997Z,21.25
2022-09-06T08:24:11.375Z,24.33
2022-09-06T08:29:15.363Z,23.65
2022-09-06T08:34:19.203Z,22.43
2022-09-06T08:39:24.059Z,20.74
2022-09-06T08:49:58.371Z,17.69
2022-09-06T08:55:18.142Z,16.27
2022-09-06T09:00:23.291Z,15.61
2022-09-06T09:05:31.301Z,15.61
2022-09-06T09:10:48.771Z,15.54
2022-09-06T09:15:54.543Z,15.58
2022-09-06T09:20:59.650Z,15.13
2022-09-06T09:26:08.467Z,14.84
2022-09-06T09:31:14.483Z,14.46
2022-09-06T09:36:23.045Z,14.11
2022-09-06T09:41:30.928Z,13.67
2022-09-06T09:46:35.380Z,13.37
2022-09-06T09:51:40.227Z,13.50
2022-09-06T09:56:51.868Z,13.66
2022-09-06T10:01:57.647Z,13.66
2022-09-06T10:07:12.855Z,13.80
2022-09-06T10:12:30.543Z,14.45
2022-09-06T10:17:37.925Z,14.97
2022-09-06T10:22:53.910Z,15.25
2022-09-06T10:28:22.718Z,15.38
2022-09-06T10:33:34.514Z,15.01
2022-09-06T10:38:49.607Z,14.67
2022-09-06T10:44:05.808Z,14.66
2022-09-06T10:49:15.256Z,14.88
2022-09-06T10:54:22.864Z,15.42
2022-09-06T11:10:10.488Z,15.11
2022-09-06T11:15:17.892Z,15.08
2022-09-06T11:20:32.173Z,15.15
2022-09-06T11:26:01.531Z,15.59
2022-09-06T11:36:37.987Z,15.85
2022-09-06T11:41:43.653Z,15.28
2022-09-06T11:47:02.058Z,14.70
2022-09-06T11:52:38.420Z,14.15
2022-09-06T11:57:43.521Z,13.85
2022-09-06T12:02:48.513Z,13.76
2022-09-06T12:08:29.344Z,14.01
2022-09-06T12:13:48.740Z,14.51
2022-09-06T12:19:01.691Z,14.83
2022-09-06T12:24:08.074Z,14.97
2022-09-06T12:29:12.615Z,15.06
2022-09-06T12:34:23.211Z,15.14
2022-09-06T12:39:27.673Z,14.91
2022-09-06T12:44:35.006Z,14.79
2022-09-06T12:49:39.898Z,14.54
2022-09-06T12:54:46.950Z,14.06
2022-09-06T12:59:55.980Z,13.77
2022-09-06T13:05:06.650Z,13.66
2022-09-06T13:10:14.085Z,13.64
2022-09-06T13:15:22.357Z,13.73
2022-09-06T13:20:30.556Z,13.78
2022-09-06T13:25:35.124Z,13.68
2022-09-06T13:30:44.321Z,13.77
2022-09-06T13:36:08.450Z,13.54
2022-09-06T13:41:47.564Z,13.30
2022-09-06T13:46:55.380Z,13.05
2022-09-06T13:52:03.309Z,12.95
2022-09-06T13:57:07.224Z,12.86
2022-09-06T14:02:15.319Z,13.04
2022-09-06T14:07:20.856Z,13.20
2022-09-06T14:12:24.831Z,13.32
2022-09-06T14:17:28.628Z,13.42
2022-09-06T14:22:33.706Z,13.52
2022-09-06T14:27:37.227Z,13.62
2022-09-06T14:32:42.319Z,13.51
2022-09-06T14:37:48.092Z,13.40
2022-09-06T14:42:51.688Z,13.27
2022-09-06T14:47:55.271Z,13.00
2022-09-06T14:53:01.547Z,12.94
2022-09-06T14:58:05.128Z,12.77
2022-09-06T15:03:08.845Z,12.79
2022-09-06T15:08:14.765Z,12.77
2022-09-06T15:13:18.435Z,12.60
2022-09-06T15:18:21.977Z,12.28
2022-09-06T15:23:28.551Z,12.08
2022-09-06T15:28:32.370Z,11.76
2022-09-06T15:33:37.576Z,11.57
2022-09-06T15:38:45.229Z,11.40
2022-09-06T15:43:51.039Z,11.31
2022-09-06T15:48:54.553Z,11.15
2022-09-06T15:54:00.556Z,11.10
2022-09-06T15:59:04.145Z,10.93
2022-09-06T16:04:08.492Z,10.84
2022-09-06T16:09:15.526Z,10.62
2022-09-06T16:14:20.013Z,10.51
2022-09-06T16:19:24.676Z,10.52
2022-09-06T16:24:31.122Z,10.43
2022-09-06T16:29:35.610Z,10.42
2022-09-06T16:34:41.139Z,10.46
2022-09-06T16:39:46.435Z,10.43
2022-09-06T16:44:50.199Z,10.36
2022-09-06T16:49:54.369Z,10.34
2022-09-06T16:55:00.642Z,10.32
2022-09-06T17:00:05.827Z,10.28
2022-09-06T17:05:10.535Z,10.22
2022-09-06T17:10:17.726Z,10.24
2022-09-06T17:15:21.712Z,10.23
2022-09-06T17:20:25.370Z,10.26
2022-09-06T17:25:33.398Z,10.23
2022-09-06T17:30:41.240Z,10.31
2022-09-06T17:35:45.594Z,10.23
2022-09-06T17:41:00.234Z,10.16
2022-09-06T17:46:05.424Z,10.10
2022-09-06T17:51:09.921Z,10.09
2022-09-06T17:56:18.101Z,10.13
2022-09-06T18:01:22.057Z,9.84
2022-09-06T18:06:27.271Z,9.94
2022-09-06T18:11:36.611Z,9.97
2022-09-06T18:16:41.692Z,9.99
2022-09-06T18:21:45.945Z,9.94
2022-09-06T18:26:50.869Z,9.93
2022-09-06T18:31:55.113Z,9.93
2022-09-06T18:37:01.085Z,9.81
2022-09-06T18:42:11.588Z,9.88
2022-09-06T18:47:16.691Z,9.76
2022-09-06T18:52:22.700Z,9.78
2022-09-06T18:57:28.811Z,9.74
2022-09-06T19:02:32.522Z,9.66
2022-09-06T19:07:36.646Z,9.59
2022-09-06T19:12:41.650Z,9.47
2022-09-06T19:17:45.106Z,9.53
2022-09-06T19:22:50.854Z,9.55
2022-09-06T19:27:55.803Z,9.46
2022-09-06T19:33:01.264Z,9.42
2022-09-06T19:38:05.184Z,9.46
2022-09-06T19:43:10.170Z,9.45
2022-09-06T19:48:13.697Z,9.43
2022-09-06T19:53:17.183Z,9.35
2022-09-06T19:58:22.115Z,9.31
2022-09-06T20:03:26.873Z,9.29
2022-09-06T20:08:30.906Z,9.26
2022-09-06T20:13:36.938Z,9.23
2022-09-06T20:18:40.856Z,9.19
2022-09-06T20:23:44.359Z,9.17
2022-09-06T20:28:49.251Z,9.08
2022-09-06T20:33:53.472Z,8.90
2022-09-06T20:38:57.113Z,8.88
2022-09-06T20:44:02.171Z,8.94
2022-09-06T20:49:06.820Z,8.88
2022-09-06T20:54:11.784Z,8.89
2022-09-06T20:59:16.402Z,8.89
2022-09-06T21:04:19.859Z,8.86
2022-09-06T21:09:24.339Z,8.80
2022-09-06T21:14:29.351Z,8.76
2022-09-06T21:19:32.845Z,8.61
2022-09-06T21:24:36.364Z,8.62
2022-09-06T21:29:41.232Z,8.67
2022-09-06T21:34:45.624Z,8.66
2022-09-06T21:39:49.341Z,8.56
2022-09-06T21:44:54.312Z,8.63
2022-09-06T21:49:58.068Z,8.53
2022-09-06T21:55:01.593Z,8.54
2022-09-06T22:00:09.691Z,8.56
2022-09-06T22:05:13.237Z,8.49
2022-09-06T22:10:16.927Z,8.51
2022-09-06T22:15:22.320Z,8.52
2022-09-06T22:20:25.808Z,8.52
2022-09-06T22:25:29.286Z,8.52
2022-09-06T22:30:34.177Z,8.53
2022-09-06T22:35:37.314Z,8.52
2022-09-06T22:40:40.779Z,8.35
2022-09-06T22:45:49.828Z,8.34
2022-09-06T22:50:57.373Z,8.26
2022-09-06T22:56:01.678Z,8.17
2022-09-06T23:01:12.392Z,8.29
2022-09-06T23:06:16.169Z,8.31
2022-09-06T23:11:21.035Z,8.35
2022-09-06T23:16:27.245Z,8.35
2022-09-06T23:21:30.853Z,8.30
2022-09-06T23:26:34.706Z,8.28
2022-09-06T23:31:39.963Z,8.18
2022-09-06T23:36:45.723Z,8.16
2022-09-06T23:41:49.188Z,8.14
2022-09-06T23:46:54.181Z,8.11
2022-09-06T23:51:59.297Z,8.05
2022-09-06T23:57:02.878Z,8.03
